Terminal Aerodrome Forecast
Issued by NWS

Home | Current Version | Previous Version | Text Only | Print | Product List | Glossary On
Versions: 1 2 3 4 5 6 7 8 9 10 11 12 13 14 15 16
000
FTUS46 KLOX 272341
TAFWJF
TAF
KWJF 272341Z 2800/2824 24018G25KT P6SM SKC
     FM280200 24015KT P6SM SKC
     FM280400 25010KT P6SM SKC
     FM281300 VRB05KT P6SM SKC
     FM281800 23006KT P6SM SKC
     FM282100 23012KT P6SM SKC
     FM282300 24018G25KT P6SM SKC=

USA.gov is the U.S. government's official web portal to all federal, state and local government web resources and services.